Time;durP1;ratioP1;P1;durP2;ratioP2;P2;SDS_P1;SDS_P2;PMS_P1;PMS_P2;Temp;Humidity;BMP_temperature;BMP_pressure;BME280_temperature;BME280_humidity;BME280_pressure;Samples;Min_cycle;Max_cycle;Signal;HPM_P1;HPM_P2
2022/09/29 00:00:25;;;;;;;2.73;1.60;;;;;;;4.40;100.00;99255.88;4950833;28;20042;-78
2022/09/29 00:02:52;;;;;;;2.50;1.80;;;;;;;4.34;100.00;99259.44;4974444;28;20038;-78
2022/09/29 00:05:19;;;;;;;3.77;1.83;;;;;;;4.39;100.00;99259.38;4974934;28;20140;-77
2022/09/29 00:07:46;;;;;;;3.97;2.10;;;;;;;4.34;100.00;99254.22;4968437;28;20042;-78
2022/09/29 00:10:13;;;;;;;3.97;2.10;;;;;;;4.31;100.00;99262.13;4976160;28;20057;-78
2022/09/29 00:12:40;;;;;;;2.70;1.80;;;;;;;4.15;100.00;99256.31;4966299;28;20050;-78
2022/09/29 00:15:07;;;;;;;2.30;1.70;;;;;;;4.08;100.00;99254.69;4978008;28;20049;-78
2022/09/29 00:17:33;;;;;;;2.53;1.77;;;;;;;4.06;100.00;99248.63;4960750;28;20439;-78
2022/09/29 00:20:00;;;;;;;3.03;2.10;;;;;;;4.09;100.00;99243.34;4977196;28;20045;-78
2022/09/29 00:22:27;;;;;;;3.50;2.43;;;;;;;4.12;100.00;99248.53;4972247;28;20046;-78
2022/09/29 00:24:53;;;;;;;2.97;2.30;;;;;;;4.08;100.00;99243.38;4987708;28;20042;-78
2022/09/29 00:27:20;;;;;;;2.67;2.23;;;;;;;4.09;100.00;99247.69;4975701;28;20561;-78
2022/09/29 00:29:47;;;;;;;3.30;1.90;;;;;;;4.06;100.00;99251.22;4994131;28;20104;-78
2022/09/29 00:32:13;;;;;;;3.37;2.30;;;;;;;3.99;100.00;99257.44;4961809;28;20057;-78
2022/09/29 00:34:40;;;;;;;2.53;2.00;;;;;;;3.99;100.00;99256.59;4993970;28;20041;-78
2022/09/29 00:37:07;;;;;;;3.40;1.83;;;;;;;4.01;100.00;99258.28;4960764;28;20042;-77
2022/09/29 00:39:33;;;;;;;2.70;1.83;;;;;;;4.05;100.00;99256.50;4973199;28;20037;-78
2022/09/29 00:42:00;;;;;;;3.80;2.00;;;;;;;3.96;100.00;99249.66;4994553;28;20037;-78
2022/09/29 00:45:03;;;;;;;3.90;1.97;;;;;;;3.92;100.00;99251.44;4989939;28;20046;-78
2022/09/29 00:47:31;;;;;;;5.33;2.03;;;;;;;3.90;100.00;99253.22;4990551;28;20408;-78
2022/09/29 00:50:13;;;;;;;3.13;1.67;;;;;;;3.82;100.00;99257.72;4993148;28;20454;-78
2022/09/29 00:52:43;;;;;;;2.80;1.80;;;;;;;3.83;100.00;99256.81;4979081;28;20046;-78
2022/09/29 00:55:26;;;;;;;2.80;1.97;;;;;;;3.78;100.00;99255.16;4979109;28;20033;-77
2022/09/29 00:58:04;;;;;;;4.70;1.93;;;;;;;3.83;100.00;99253.34;4977509;28;20045;-78
2022/09/29 01:00:31;;;;;;;2.87;1.80;;;;;;;3.78;100.00;99256.03;4993764;28;20038;-78
2022/09/29 01:03:07;;;;;;;4.57;2.60;;;;;;;3.76;100.00;99257.81;4979234;28;20037;-78
2022/09/29 01:05:57;;;;;;;4.07;2.57;;;;;;;3.72;100.00;99263.97;4963313;28;20073;-77
2022/09/29 01:08:29;;;;;;;4.77;2.77;;;;;;;3.77;100.00;99264.75;4975139;28;20483;-78
2022/09/29 01:10:56;;;;;;;4.97;2.80;;;;;;;3.73;100.00;99262.22;4971988;28;20120;-77
2022/09/29 01:13:23;;;;;;;4.67;2.67;;;;;;;3.77;100.00;99263.88;4977422;28;20064;-78
2022/09/29 01:15:50;;;;;;;4.67;2.93;;;;;;;3.79;100.00;99270.84;4995347;28;20136;-77
2022/09/29 01:18:17;;;;;;;4.73;2.70;;;;;;;3.84;100.00;99269.00;4986642;28;20034;-78
2022/09/29 01:21:25;;;;;;;4.77;3.17;;;;;;;3.81;100.00;99265.59;4969785;28;20042;-78
2022/09/29 01:24:16;;;;;;;4.23;2.87;;;;;;;3.73;100.00;99268.31;4977558;28;20080;-78
2022/09/29 01:27:00;;;;;;;5.37;3.00;;;;;;;3.73;100.00;99273.53;4975964;28;20506;-78
2022/09/29 01:30:05;;;;;;;4.15;2.95;;;;;;;3.79;100.00;99275.19;4987198;28;20035;-78
2022/09/29 01:32:41;;;;;;;5.78;2.95;;;;;;;3.87;100.00;99279.41;4970164;28;20057;-78
2022/09/29 01:35:13;;;;;;;4.47;3.07;;;;;;;3.98;100.00;99279.25;4992951;28;20502;-78
2022/09/29 01:37:59;;;;;;;7.10;3.30;;;;;;;3.86;100.00;99282.88;4990290;28;20065;-78
2022/09/29 01:40:33;;;;;;;5.03;2.53;;;;;;;3.90;100.00;99284.59;4975513;28;20068;-77
2022/09/29 01:43:01;;;;;;;6.70;3.40;;;;;;;3.93;100.00;99281.06;4992532;28;20034;-78
2022/09/29 01:45:38;;;;;;;5.13;3.10;;;;;;;3.89;100.00;99290.69;4975830;28;20092;-77
2022/09/29 01:48:15;;;;;;;5.63;2.83;;;;;;;3.84;100.00;99279.44;4993877;28;20100;-78
2022/09/29 01:50:47;;;;;;;7.17;3.17;;;;;;;3.85;100.00;99291.63;4975998;28;20045;-78
2022/09/29 01:53:18;;;;;;;6.70;3.80;;;;;;;3.81;100.00;99291.69;4980077;28;20068;-78
2022/09/29 01:55:49;;;;;;;6.73;3.43;;;;;;;3.87;100.00;99292.47;4975039;28;20407;-78
2022/09/29 01:58:25;;;;;;;4.90;3.13;;;;;;;3.92;100.00;99300.22;4993185;28;20707;-78
2022/09/29 02:00:55;;;;;;;6.53;3.60;;;;;;;3.99;100.00;99293.16;4977512;28;22029;-78
2022/09/29 02:03:37;;;;;;;4.87;3.30;;;;;;;4.03;100.00;99307.91;4993682;28;20044;-78
2022/09/29 02:06:08;;;;;;;7.10;3.80;;;;;;;4.00;100.00;99297.50;4975113;28;20050;-78
2022/09/29 02:09:07;;;;;;;5.07;3.50;;;;;;;3.99;100.00;99308.84;4969416;28;20550;-78
2022/09/29 02:11:37;;;;;;;5.37;3.27;;;;;;;3.99;100.00;99304.47;4989739;28;20447;-78
2022/09/29 02:14:09;;;;;;;6.07;3.77;;;;;;;4.11;100.00;99306.03;4985564;28;20410;-78
2022/09/29 02:16:41;;;;;;;5.40;3.77;;;;;;;4.07;100.00;99307.84;4998994;28;20038;-78
2022/09/29 02:19:20;;;;;;;7.17;3.83;;;;;;;4.02;100.00;99303.56;5070244;22;20117;-80
2022/09/29 02:21:46;;;;;;;6.37;3.57;;;;;;;4.07;100.00;99305.22;5019090;28;20111;-80
2022/09/29 02:24:14;;;;;;;5.43;3.57;;;;;;;4.10;100.00;99296.47;5023738;28;20104;-82
2022/09/29 02:26:41;;;;;;;5.90;3.83;;;;;;;4.12;100.00;99302.53;5044430;28;20033;-81
2022/09/29 02:29:08;;;;;;;4.90;3.37;;;;;;;4.14;100.00;99301.63;5030857;28;20048;-81
2022/09/29 02:31:36;;;;;;;5.23;3.37;;;;;;;4.20;100.00;99305.88;5011607;28;20076;-80
2022/09/29 02:34:05;;;;;;;6.57;3.67;;;;;;;4.26;100.00;99305.78;5027186;28;20060;-81
2022/09/29 02:36:56;;;;;;;5.93;3.50;;;;;;;4.39;100.00;99304.69;5041679;28;20494;-81
2022/09/29 02:39:41;;;;;;;5.30;3.70;;;;;;;4.36;100.00;99307.34;5025464;28;20045;-81
2022/09/29 02:42:18;;;;;;;6.60;3.97;;;;;;;4.33;100.00;99309.16;5028390;28;20045;-81
2022/09/29 02:45:01;;;;;;;5.47;3.23;;;;;;;4.30;100.00;99312.69;5024570;28;20038;-81
2022/09/29 02:47:54;;;;;;;5.37;3.60;;;;;;;4.24;100.00;99315.41;5025066;28;20522;-81
2022/09/29 02:50:27;;;;;;;6.43;4.07;;;;;;;4.28;100.00;99314.44;5023335;28;20033;-80
2022/09/29 02:53:22;;;;;;;5.23;4.00;;;;;;;4.30;100.00;99320.53;5041674;28;20099;-80
2022/09/29 02:56:01;;;;;;;5.50;4.00;;;;;;;4.29;100.00;99316.22;5054949;28;20434;-82
2022/09/29 02:58:38;;;;;;;5.67;3.83;;;;;;;4.29;100.00;99312.69;5010141;28;20042;-81
2022/09/29 03:01:06;;;;;;;6.77;3.73;;;;;;;4.30;100.00;99317.94;5013891;28;20045;-81
2022/09/29 03:03:33;;;;;;;6.23;3.83;;;;;;;4.28;100.00;99318.81;5015392;28;20037;-80
2022/09/29 03:06:00;;;;;;;6.93;3.80;;;;;;;4.32;100.00;99316.16;5028835;28;20064;-79
2022/09/29 03:08:27;;;;;;;6.77;4.50;;;;;;;4.33;100.00;99317.00;5045324;28;20440;-81
2022/09/29 03:10:53;;;;;;;6.57;4.17;;;;;;;4.30;100.00;99317.94;5035523;28;20045;-81
2022/09/29 03:13:20;;;;;;;6.33;4.00;;;;;;;4.39;100.00;99314.28;5037182;28;20053;-80
2022/09/29 03:15:47;;;;;;;6.67;4.10;;;;;;;4.44;100.00;99323.75;5021870;28;20056;-80
2022/09/29 03:18:16;;;;;;;6.50;3.80;;;;;;;4.40;100.00;99316.88;5020841;28;20414;-80
2022/09/29 03:20:43;;;;;;;5.50;3.40;;;;;;;4.45;100.00;99316.78;5029717;28;20037;-79
2022/09/29 03:23:10;;;;;;;7.87;4.00;;;;;;;4.31;100.00;99319.66;5043689;28;20049;-79
2022/09/29 03:25:37;;;;;;;6.70;3.87;;;;;;;4.50;100.00;99314.97;5043633;28;20108;-80
2022/09/29 03:28:04;;;;;;;7.97;3.77;;;;;;;4.45;100.00;99324.63;5052997;28;20075;-78
2022/09/29 03:30:31;;;;;;;6.73;3.90;;;;;;;4.37;100.00;99323.91;5022959;28;20056;-80
2022/09/29 03:32:58;;;;;;;6.13;3.83;;;;;;;4.31;100.00;99326.63;5038607;28;20090;-80
2022/09/29 03:35:25;;;;;;;5.50;3.40;;;;;;;4.44;100.00;99326.38;5043000;28;20094;-80
2022/09/29 03:37:58;;;;;;;8.03;3.60;;;;;;;4.46;100.00;99331.63;5025832;28;20053;-79
2022/09/29 03:40:25;;;;;;;7.03;3.43;;;;;;;4.40;100.00;99335.19;5067670;28;20040;-80
2022/09/29 03:42:52;;;;;;;7.03;3.77;;;;;;;4.49;100.00;99335.03;5034494;28;20037;-80
2022/09/29 03:45:19;;;;;;;6.10;3.70;;;;;;;4.37;100.00;99340.47;5041357;28;20041;-80
2022/09/29 03:47:46;;;;;;;6.50;3.93;;;;;;;4.27;100.00;99328.41;5038054;28;20041;-80
2022/09/29 03:50:12;;;;;;;5.53;3.57;;;;;;;4.29;100.00;99342.34;5040066;28;20087;-80
2022/09/29 03:52:39;;;;;;;6.53;4.20;;;;;;;4.26;100.00;99341.50;5041725;28;20049;-80
2022/09/29 03:55:06;;;;;;;8.07;3.90;;;;;;;4.22;100.00;99340.72;5030732;28;20041;-78
2022/09/29 03:57:34;;;;;;;5.73;3.83;;;;;;;4.21;100.00;99345.09;5039360;28;20049;-80
2022/09/29 04:00:01;;;;;;;6.47;3.60;;;;;;;4.18;100.00;99331.19;5040506;28;20126;-79
2022/09/29 04:02:28;;;;;;;5.63;3.90;;;;;;;4.22;100.00;99340.72;5022212;28;20040;-81
2022/09/29 04:04:55;;;;;;;6.27;3.47;;;;;;;4.22;100.00;99344.19;5021059;28;20045;-80
2022/09/29 04:07:23;;;;;;;8.13;4.80;;;;;;;4.28;100.00;99344.97;5033663;28;20045;-78
2022/09/29 04:09:50;;;;;;;7.10;4.43;;;;;;;4.20;100.00;99348.59;5019056;28;20556;-79
2022/09/29 04:12:16;;;;;;;7.10;3.83;;;;;;;4.12;100.00;99347.84;5019110;28;20072;-79
2022/09/29 04:14:43;;;;;;;6.90;4.40;;;;;;;4.13;100.00;99351.31;5038791;28;20527;-79
2022/09/29 04:17:10;;;;;;;7.00;4.47;;;;;;;4.14;100.00;99353.03;5040836;28;20045;-80
2022/09/29 04:19:40;;;;;;;6.27;3.90;;;;;;;4.17;100.00;99353.84;5065000;28;20068;-81
2022/09/29 04:22:10;;;;;;;6.37;4.33;;;;;;;4.16;100.00;99356.50;5022681;28;20052;-80
2022/09/29 04:24:37;;;;;;;8.00;3.83;;;;;;;4.21;100.00;99366.00;5025658;28;20109;-79
2022/09/29 04:27:04;;;;;;;6.57;4.00;;;;;;;4.24;100.00;99359.84;5023738;28;20045;-81
2022/09/29 04:29:31;;;;;;;7.80;4.53;;;;;;;4.13;100.00;99370.47;5030257;28;20047;-79
2022/09/29 04:31:58;;;;;;;8.97;4.57;;;;;;;4.15;100.00;99378.28;5030203;28;20045;-79
2022/09/29 04:34:25;;;;;;;8.23;4.30;;;;;;;4.24;100.00;99367.69;5026460;28;20045;-79
2022/09/29 04:36:53;;;;;;;7.03;4.40;;;;;;;4.33;100.00;99375.38;5030652;28;20485;-79
2022/09/29 04:39:20;;;;;;;7.10;4.73;;;;;;;4.34;100.00;99365.78;5029312;28;20097;-79
2022/09/29 04:41:47;;;;;;;10.07;5.50;;;;;;;4.33;100.00;99369.28;5044258;28;20060;-80
2022/09/29 04:44:13;;;;;;;8.37;4.70;;;;;;;4.35;100.00;99371.00;5032794;28;20059;-80
2022/09/29 04:46:40;;;;;;;8.53;5.10;;;;;;;4.44;100.00;99375.22;5032600;28;20056;-79
2022/09/29 04:49:07;;;;;;;9.77;5.80;;;;;;;4.45;100.00;99377.78;4985093;28;20073;-81
2022/09/29 04:51:33;;;;;;;9.37;5.43;;;;;;;4.47;100.00;99375.19;4999641;28;20096;-79
2022/09/29 04:54:00;;;;;;;8.47;5.17;;;;;;;4.52;100.00;99382.03;4985322;28;20113;-81
2022/09/29 04:56:30;;;;;;;10.10;5.93;;;;;;;4.56;100.00;99377.63;4983182;28;20049;-80
2022/09/29 04:58:57;;;;;;;8.43;4.70;;;;;;;4.62;100.00;99387.13;5001528;28;20037;-80
2022/09/29 05:01:24;;;;;;;10.10;6.07;;;;;;;4.63;100.00;99384.50;5015283;28;20111;-80
2022/09/29 05:03:51;;;;;;;11.23;5.97;;;;;;;4.70;100.00;99387.84;5017208;28;20067;-80
2022/09/29 05:06:18;;;;;;;8.70;5.73;;;;;;;4.74;100.00;99386.91;4999934;28;20103;-80
2022/09/29 05:08:44;;;;;;;10.27;5.90;;;;;;;4.79;100.00;99385.97;5000816;28;20087;-80
2022/09/29 05:11:11;;;;;;;10.67;6.00;;;;;;;4.91;100.00;99386.63;4999137;28;20487;-80
2022/09/29 05:13:37;;;;;;;8.37;5.03;;;;;;;4.86;100.00;99391.06;4984541;28;20045;-80
2022/09/29 05:16:04;;;;;;;8.13;4.93;;;;;;;4.87;100.00;99393.66;5015498;28;20506;-79
2022/09/29 05:18:32;;;;;;;9.63;5.40;;;;;;;4.91;100.00;99386.63;5016857;28;20521;-81
2022/09/29 05:21:03;;;;;;;10.17;5.33;;;;;;;4.97;100.00;99389.16;5017040;28;20086;-80
2022/09/29 05:23:50;;;;;;;9.10;4.90;;;;;;;5.00;100.00;99395.16;5056362;28;20185;-80
2022/09/29 05:26:17;;;;;;;6.90;4.67;;;;;;;5.06;100.00;99396.81;5054113;28;20032;-80
2022/09/29 05:28:45;;;;;;;6.87;4.37;;;;;;;5.12;100.00;99395.81;5060532;28;20094;-80
2022/09/29 05:31:13;;;;;;;10.10;5.10;;;;;;;5.17;100.00;99399.22;5037918;28;20045;-80
2022/09/29 05:33:40;;;;;;;11.47;5.60;;;;;;;5.22;100.00;99400.03;5039836;28;20127;-80
2022/09/29 05:36:10;;;;;;;8.73;5.17;;;;;;;5.24;100.00;99403.47;5031073;28;20045;-80
2022/09/29 05:38:37;;;;;;;8.90;5.87;;;;;;;5.25;100.00;99402.56;5036758;28;20045;-81
2022/09/29 05:41:05;;;;;;;11.00;5.67;;;;;;;5.31;100.00;99403.31;5039056;28;20033;-80
2022/09/29 05:43:32;;;;;;;9.53;4.83;;;;;;;5.37;100.00;99405.81;5057097;28;20060;-80
2022/09/29 05:46:03;;;;;;;8.80;4.87;;;;;;;5.43;100.00;99404.84;5039216;28;20615;-81
2022/09/29 05:48:30;;;;;;;8.47;5.10;;;;;;;5.48;100.00;99396.91;5040856;28;20044;-80
2022/09/29 05:50:57;;;;;;;9.47;5.13;;;;;;;5.52;100.00;99409.03;5038726;28;20041;-80
2022/09/29 05:53:24;;;;;;;8.77;4.77;;;;;;;5.56;100.00;99408.09;5040736;28;20456;-80
2022/09/29 05:55:51;;;;;;;9.67;5.10;;;;;;;5.60;100.00;99413.22;5055023;28;20041;-80
2022/09/29 05:58:18;;;;;;;8.53;5.20;;;;;;;5.65;100.00;99402.66;5022823;28;20098;-80
2022/09/29 06:00:45;;;;;;;7.73;4.90;;;;;;;5.70;100.00;99413.03;5033845;28;20048;-80
2022/09/29 06:03:11;;;;;;;8.43;5.30;;;;;;;5.75;100.00;99413.81;5019369;28;20052;-80
2022/09/29 06:05:39;;;;;;;16.00;7.80;;;;;;;5.77;100.00;99412.88;5033551;28;20091;-80
2022/09/29 06:08:05;;;;;;;9.23;5.63;;;;;;;5.81;100.00;99417.16;5002664;28;20040;-80
2022/09/29 06:10:32;;;;;;;9.00;5.07;;;;;;;5.92;100.00;99412.59;5001859;28;20037;-80
2022/09/29 06:13:02;;;;;;;8.80;5.40;;;;;;;5.98;100.00;99408.13;5018606;28;20040;-80
2022/09/29 06:15:28;;;;;;;14.73;6.10;;;;;;;6.04;100.00;99419.31;5034633;28;20049;-81
2022/09/29 06:17:59;;;;;;;9.20;4.87;;;;;;;6.08;100.00;99415.72;5018375;28;20045;-81
2022/09/29 06:20:26;;;;;;;9.13;5.60;;;;;;;6.11;100.00;99418.28;5034352;28;20543;-80
2022/09/29 06:22:53;;;;;;;10.87;6.10;;;;;;;6.23;100.00;99418.91;5034334;28;20051;-80
2022/09/29 06:25:21;;;;;;;9.90;5.80;;;;;;;6.28;100.00;99419.66;5018437;28;20041;-80
2022/09/29 06:27:47;;;;;;;13.77;7.30;;;;;;;6.46;100.00;99424.47;5016842;28;20441;-81
2022/09/29 06:30:14;;;;;;;18.77;10.47;;;;;;;6.54;100.00;99419.91;5034511;28;20049;-80
2022/09/29 06:32:41;;;;;;;16.07;9.13;;;;;;;6.63;100.00;99427.56;5033044;28;20041;-80
2022/09/29 06:37:55;;;;;;;20.87;11.27;;;;;;;6.90;100.00;99433.06;5032716;28;20413;-80
2022/09/29 06:40:26;;;;;;;21.13;11.90;;;;;;;6.95;100.00;99421.50;5019959;28;20040;-81
2022/09/29 06:42:53;;;;;;;20.37;10.67;;;;;;;7.05;100.00;99422.13;5038448;28;20048;-81
2022/09/29 06:45:21;;;;;;;18.93;11.47;;;;;;;7.25;100.00;99430.38;5022477;28;20091;-82
2022/09/29 06:47:48;;;;;;;20.10;10.53;;;;;;;7.28;100.00;99434.66;5054746;28;20048;-81
2022/09/29 06:50:14;;;;;;;20.23;11.67;;;;;;;7.28;100.00;99435.53;5039626;28;20051;-81
2022/09/29 06:52:47;;;;;;;21.83;11.63;;;;;;;7.37;100.00;99438.81;5021430;28;20046;-79
2022/09/29 06:55:27;;;;;;;21.33;11.97;;;;;;;7.40;100.00;99438.72;5025065;28;20067;-80
2022/09/29 06:57:54;;;;;;;17.27;11.03;;;;;;;7.42;100.00;99432.53;5037342;28;20040;-80
2022/09/29 07:00:27;;;;;;;19.17;10.93;;;;;;;7.45;100.00;99434.22;5038399;28;20040;-80
2022/09/29 07:02:53;;;;;;;21.70;11.50;;;;;;;7.52;100.00;99435.78;5036864;28;20090;-80
2022/09/29 07:05:20;;;;;;;19.77;11.80;;;;;;;7.61;100.00;99438.16;5037764;28;20501;-80
2022/09/29 07:07:47;;;;;;;18.23;11.47;;;;;;;7.72;100.00;99446.59;5037111;28;20044;-80
2022/09/29 07:10:18;;;;;;;19.13;11.13;;;;;;;7.74;100.00;99443.94;5023180;28;20044;-80
2022/09/29 07:12:45;;;;;;;19.37;11.17;;;;;;;7.87;100.00;99446.16;5036253;28;20048;-80
2022/09/29 07:15:12;;;;;;;19.87;11.27;;;;;;;8.06;100.00;99445.59;5037510;28;20044;-80
2022/09/29 07:17:39;;;;;;;17.03;11.30;;;;;;;8.14;100.00;99446.25;5019431;28;20059;-80
2022/09/29 07:20:06;;;;;;;17.50;10.70;;;;;;;8.16;100.00;99452.34;5066741;28;20056;-79
2022/09/29 07:22:33;;;;;;;18.43;10.27;;;;;;;8.25;100.00;99444.16;5048767;28;20032;-79
2022/09/29 07:25:01;;;;;;;20.30;10.73;;;;;;;8.40;100.00;99445.47;5034305;28;20041;-80
2022/09/29 07:27:27;;;;;;;16.73;10.60;;;;;;;8.48;100.00;99455.78;5065590;28;20033;-80
2022/09/29 07:29:54;;;;;;;16.90;10.67;;;;;;;8.61;100.00;99457.13;5051235;28;20048;-80
2022/09/29 07:32:31;;;;;;;14.77;10.17;;;;;;;8.67;100.00;99456.94;5017819;28;20124;-80
2022/09/29 07:34:58;;;;;;;16.30;9.88;;;;;;;8.76;100.00;99450.53;5017653;28;20064;-80
2022/09/29 07:37:26;;;;;;;15.82;10.27;;;;;;;8.92;100.00;99457.00;5016343;28;20045;-80
2022/09/29 07:39:53;;;;;;;27.25;11.57;;;;;;;9.01;100.00;99461.97;5017588;28;20045;-80
2022/09/29 07:42:20;;;;;;;16.27;9.65;;;;;;;9.01;100.00;99468.09;5015896;28;20714;-80
2022/09/29 07:44:47;;;;;;;14.88;9.43;;;;;;;8.99;100.00;99469.91;5033495;28;20048;-80
2022/09/29 07:47:18;;;;;;;15.70;9.45;;;;;;;9.25;100.00;99476.97;5048170;28;20102;-80
2022/09/29 07:49:45;;;;;;;15.45;9.57;;;;;;;9.36;100.00;99468.69;5016696;28;20048;-80
2022/09/29 07:52:12;;;;;;;15.88;9.25;;;;;;;9.28;100.00;99475.97;5015994;28;20090;-79
2022/09/29 07:54:39;;;;;;;15.77;10.15;;;;;;;9.61;100.00;99473.09;5014081;28;20049;-80
2022/09/29 07:57:06;;;;;;;15.98;9.02;;;;;;;9.78;100.00;99476.84;5031718;28;20123;-80
2022/09/29 07:59:32;;;;;;;14.20;9.55;;;;;;;9.67;100.00;99480.75;5049233;28;20040;-80
2022/09/29 08:01:59;;;;;;;14.35;10.40;;;;;;;9.79;100.00;99485.63;5035395;28;20037;-78
2022/09/29 08:04:26;;;;;;;14.88;9.63;;;;;;;9.89;100.00;99479.09;5019979;28;20044;-79
2022/09/29 08:06:52;;;;;;;12.52;8.40;;;;;;;9.98;100.00;99480.53;5036017;28;20045;-78
2022/09/29 08:09:19;;;;;;;14.15;10.20;;;;;;;10.08;100.00;99490.69;5018987;28;20080;-79
2022/09/29 08:11:47;;;;;;;16.65;10.23;;;;;;;10.11;100.00;99492.38;5043994;28;20029;-80
2022/09/29 08:14:25;;;;;;;12.80;9.88;;;;;;;10.16;100.00;99496.53;5036576;28;20045;-80
2022/09/29 08:16:51;;;;;;;16.42;10.68;;;;;;;10.31;100.00;99499.56;5031849;28;20053;-81
2022/09/29 08:19:18;;;;;;;14.48;10.48;;;;;;;10.38;100.00;99496.63;5050051;28;20474;-80
2022/09/29 08:21:48;;;;;;;14.93;10.82;;;;;;;10.50;100.00;99499.72;5031866;28;20053;-80
2022/09/29 08:24:16;;;;;;;16.67;9.73;;;;;;;10.66;100.00;99500.84;5045689;28;20046;-81
2022/09/29 08:26:43;;;;;;;15.02;10.95;;;;;;;10.65;100.00;99515.81;5024983;28;20036;-81
2022/09/29 08:29:11;;;;;;;15.07;10.35;;;;;;;10.80;100.00;99513.50;5017144;28;20049;-81
2022/09/29 08:31:54;;;;;;;13.75;9.43;;;;;;;10.90;100.00;99510.44;5031446;28;20052;-80
2022/09/29 08:34:21;;;;;;;14.98;10.05;;;;;;;10.94;100.00;99508.53;5035786;28;20443;-80
2022/09/29 08:36:47;;;;;;;15.57;11.02;;;;;;;11.12;100.00;99510.44;5028739;28;20041;-81
2022/09/29 08:39:14;;;;;;;14.95;10.73;;;;;;;10.92;100.00;99513.00;5027940;28;20045;-81
2022/09/29 08:41:57;;;;;;;13.23;9.30;;;;;;;11.08;100.00;99514.09;5000983;28;20029;-80
2022/09/29 08:44:38;;;;;;;13.95;10.98;;;;;;;11.16;100.00;99517.28;5016833;28;20048;-82
2022/09/29 08:47:14;;;;;;;13.77;10.10;;;;;;;11.32;100.00;99514.03;5013896;28;20037;-80
2022/09/29 08:49:46;;;;;;;16.27;11.13;;;;;;;11.27;100.00;99522.16;5031710;28;20452;-81
2022/09/29 08:52:24;;;;;;;15.20;10.02;;;;;;;11.38;100.00;99522.56;5011874;28;20503;-79
2022/09/29 08:55:16;;;;;;;12.60;9.55;;;;;;;11.27;100.00;99525.66;4993391;28;20838;-82
2022/09/29 08:57:50;;;;;;;14.05;10.25;;;;;;;11.17;100.00;99534.88;5006300;28;20518;-80
2022/09/29 09:00:18;;;;;;;18.63;11.85;;;;;;;10.95;100.00;99536.69;5013043;28;20045;-81
2022/09/29 09:03:39;;;;;;;14.85;11.43;;;;;;;10.89;100.00;99540.41;5032075;28;20033;-80
2022/09/29 09:06:13;;;;;;;14.05;10.45;;;;;;;10.70;100.00;99536.78;4947753;28;20046;-80
2022/09/29 09:08:58;;;;;;;17.40;11.27;;;;;;;10.77;100.00;99540.91;4935402;29;20043;-81
2022/09/29 09:11:43;;;;;;;;;;;;;;;11.11;100.00;99536.94;4983311;28;20502;-81
2022/09/29 09:14:16;;;;;;;;;;;;;;;11.27;100.00;99535.38;5051874;28;20427;-81
2022/09/29 09:16:53;;;;;;;16.10;11.15;;;;;;;11.49;100.00;99537.97;5034342;28;19927;-81
2022/09/29 09:19:30;;;;;;;15.77;11.18;;;;;;;11.59;100.00;99531.38;5018262;28;20045;-81
2022/09/29 09:22:20;;;;;;;15.18;11.18;;;;;;;11.82;100.00;99525.97;5000923;28;20224;-81
2022/09/29 09:25:04;;;;;;;13.38;10.77;;;;;;;12.11;100.00;99531.81;5016746;28;20422;-81
2022/09/29 09:27:36;;;;;;;15.73;11.33;;;;;;;12.41;99.21;99529.53;5017295;28;20094;-80
2022/09/29 09:30:13;;;;;;;14.35;10.27;;;;;;;12.71;97.02;99529.91;5027651;28;20292;-81
2022/09/29 09:32:46;;;;;;;14.02;9.55;;;;;;;12.97;97.25;99528.66;5036656;28;20048;-81
2022/09/29 09:35:35;;;;;;;12.20;9.30;;;;;;;13.12;93.52;99527.94;5017339;28;20049;-81
2022/09/29 09:38:12;;;;;;;11.98;8.88;;;;;;;13.23;93.03;99532.72;5033867;28;20064;-82
2022/09/29 09:40:44;;;;;;;12.70;9.43;;;;;;;13.11;94.65;99542.09;5013869;28;20030;-81
2022/09/29 09:43:18;;;;;;;10.50;8.90;;;;;;;12.97;95.44;99536.63;5006666;28;20303;-82
2022/09/29 09:45:56;;;;;;;12.85;9.15;;;;;;;12.75;89.79;99539.41;5032878;28;20530;-81
2022/09/29 09:48:31;;;;;;;11.93;9.13;;;;;;;12.70;91.04;99533.50;5017335;28;20449;-81
2022/09/29 09:51:01;;;;;;;;;;;;;;;12.84;92.03;99541.63;5001543;28;20045;-81
2022/09/29 09:53:34;;;;;;;12.05;8.10;;;;;;;13.04;88.36;99547.78;5017553;28;20118;-80
2022/09/29 09:56:10;;;;;;;12.88;8.10;;;;;;;13.24;87.56;99540.59;4997876;28;20045;-81
2022/09/29 09:58:56;;;;;;;11.82;8.00;;;;;;;13.39;88.65;99549.59;5013691;28;20042;-82
2022/09/29 10:01:22;;;;;;;11.52;7.75;;;;;;;13.40;83.63;99546.00;5027991;28;20034;-83
2022/09/29 10:03:49;;;;;;;10.30;7.28;;;;;;;13.15;84.96;99551.63;4997647;28;20037;-83
2022/09/29 10:06:16;;;;;;;9.70;7.43;;;;;;;13.37;87.90;99550.59;5017138;28;20041;-81
2022/09/29 10:08:42;;;;;;;9.02;7.38;;;;;;;13.64;85.40;99546.56;4997359;28;20092;-83
2022/09/29 10:11:24;;;;;;;9.15;7.40;;;;;;;13.81;81.38;99545.72;5016661;28;20037;-82
2022/09/29 10:13:58;;;;;;;8.05;6.75;;;;;;;14.11;82.77;99553.00;5006107;28;20048;-82
2022/09/29 10:16:29;;;;;;;9.57;6.95;;;;;;;14.24;81.33;99554.09;5004414;28;20038;-83
2022/09/29 10:18:55;;;;;;;7.38;6.25;;;;;;;14.37;79.82;99550.69;4997340;28;20049;-82
2022/09/29 10:21:27;;;;;;;8.52;6.00;;;;;;;14.49;77.28;99559.00;4990057;28;20046;-82
2022/09/29 10:23:56;;;;;;;6.78;5.47;;;;;;;14.47;77.23;99560.88;5015833;28;20069;-81
2022/09/29 10:26:25;;;;;;;7.90;6.07;;;;;;;14.63;78.62;99557.31;5022483;28;20049;-81
2022/09/29 10:29:16;;;;;;;7.32;5.70;;;;;;;14.77;75.34;99561.00;5024799;28;20049;-82
2022/09/29 10:31:56;;;;;;;7.65;5.32;;;;;;;14.82;76.31;99561.59;5033087;28;20072;-80
2022/09/29 10:34:24;;;;;;;7.43;5.38;;;;;;;14.70;77.28;99564.91;5033381;28;20053;-81
2022/09/29 10:36:55;;;;;;;6.15;5.30;;;;;;;14.70;75.78;99567.56;5015546;28;20053;-81
2022/09/29 10:39:40;;;;;;;6.13;4.90;;;;;;;14.81;73.94;99567.88;5022123;28;20068;-82
2022/09/29 10:42:20;;;;;;;7.28;5.03;;;;;;;14.79;73.51;99570.59;5021868;28;20437;-80
2022/09/29 10:45:00;;;;;;;8.63;7.68;;;;;;;14.54;71.53;99576.38;5017029;28;20337;-80
2022/09/29 10:47:27;;;;;;;8.27;5.97;;;;;;;14.22;75.71;99571.91;5015257;28;20037;-83
2022/09/29 10:50:15;;;;;;;8.90;6.13;;;;;;;13.72;77.06;99575.38;5014427;28;20134;-84
2022/09/29 10:52:55;;;;;;;7.38;6.20;;;;;;;14.18;78.57;99571.19;4994114;28;20053;-84
2022/09/29 10:55:33;;;;;;;17.88;13.88;;;;;;;14.29;76.34;99578.59;5019591;28;20037;-84
2022/09/29 10:58:06;;;;;;;6.72;6.10;;;;;;;14.20;74.97;99571.97;5013005;28;20038;-83
2022/09/29 11:00:36;;;;;;;5.53;4.20;;;;;;;14.32;72.78;99576.66;5005559;28;20050;-84
2022/09/29 11:03:07;;;;;;;11.95;9.02;;;;;;;14.44;72.29;99576.94;5007716;28;20049;-83
2022/09/29 11:05:34;;;;;;;83.03;55.45;;;;;;;14.59;71.11;99582.31;5006523;28;20048;-83
2022/09/29 11:08:01;;;;;;;8.75;7.60;;;;;;;14.66;71.11;99584.66;4992439;28;20064;-84
2022/09/29 11:10:34;;;;;;;8.82;5.72;;;;;;;14.91;72.91;99579.72;5007595;28;20038;-84
2022/09/29 11:13:19;;;;;;;12.48;8.68;;;;;;;14.86;70.25;99581.75;5008209;28;20046;-81
2022/09/29 11:15:45;;;;;;;27.55;18.70;;;;;;;14.74;71.47;99588.59;5001190;28;20045;-83
2022/09/29 11:18:35;;;;;;;31.77;20.40;;;;;;;14.56;70.13;99594.94;5000030;28;20068;-83
2022/09/29 11:21:20;;;;;;;30.67;18.75;;;;;;;14.55;68.26;99588.75;4996129;28;20037;-81
2022/09/29 11:24:21;;;;;;;13.02;8.48;;;;;;;14.66;67.04;99590.81;5024979;28;20042;-80
2022/09/29 11:27:00;;;;;;;40.22;20.90;;;;;;;14.85;69.96;99590.69;5009679;28;20042;-80
2022/09/29 11:30:02;;;;;;;343.45;230.23;;;;;;;14.85;66.69;99590.69;5019609;28;20045;-80
2022/09/29 11:32:50;;;;;;;17.20;12.52;;;;;;;14.87;66.23;99599.41;5017000;28;20521;-81
2022/09/29 11:35:28;;;;;;;5.50;3.90;;;;;;;14.88;65.13;99588.72;5013097;28;20053;-83
2022/09/29 11:38:09;;;;;;;6.85;4.18;;;;;;;14.93;67.32;99596.44;5022854;28;20042;-80
2022/09/29 11:41:03;;;;;;;4.07;3.22;;;;;;;15.14;65.82;99605.03;4995645;28;20053;-80
2022/09/29 11:43:46;;;;;;;7.15;6.40;;;;;;;15.38;65.27;99592.97;5026215;28;20043;-81
2022/09/29 11:46:53;;;;;;;3.65;3.05;;;;;;;15.57;64.33;99583.94;4995974;28;20045;-82
2022/09/29 11:49:38;;;;;;;8.50;6.00;;;;;;;15.56;59.63;99587.56;4973874;28;20081;-81
2022/09/29 11:52:20;;;;;;;4.35;3.20;;;;;;;15.70;63.73;99583.16;5011618;28;20038;-83
2022/09/29 11:55:10;;;;;;;4.22;2.70;;;;;;;15.65;62.93;99595.06;4986032;28;20041;-81